Nicholasville, KY (40340)

08:21 PM EDT del 01 Luglio 2015 (GMT -0400)
Belleau Wood/Veteran's Park | | Change Station
CLOSE
Current Station
Stazione meteo personale
Location: Lexington, KY
Altitudine: 978 ft
Stazioni meteo nelle vicinanze

Alt. 978 ft 37.97 °N, 84.51 °W | Updated 12 seconds ago

Coperto
Coperto
72.0 °F
Sembra 72.0 °F
N
0.0
Vento Variabile Vento da SSE
Gusts 0.0 mph

Oggi
Massima -- | Minima -- °F
--% Possibilità di precip.
Ieri
Massima -- | Minima -- °F
Precip. -- in
6:19 AM 9:04 PM
Luna piena, 100% visible
Pressione 29.93 in
Visibilità 4.0 miglia
Nuvole Nubi sparse 1100 ft
Molto nuvoloso 2600 ft
Coperto 6500 ft
Punto di rugiada 69 °F
Umidità 91%
Piovosità 0.07 in
Spessore del manto nevoso Non disponibile.
Raggi UV 0 fuori da 12
Polline 3.50 fuori da 12
Qualità dell'aria Non disponibile.
Flu Activity Non disponibile.
SPECI KLEX 020002Z 14004KT 4SM BR SCT011 BKN026 OVC065 23/21 A2993 RMK AO2 T02280206 $

More Conditions Fewer Conditions

Pressione 29.93 in
Visibilità 4.0 miglia
Nuvole Nubi sparse 1100 ft
Molto nuvoloso 2600 ft
Coperto 6500 ft
Punto di rugiada 69 °F
Umidità 91%
Piovosità 0.07 in
Spessore del manto nevoso Non disponibile.
Raggi UV 0 fuori da 12
Polline 3.50 fuori da 12
Qualità dell'aria Non disponibile.
Flu Activity Non disponibile.
SPECI KLEX 020002Z 14004KT 4SM BR SCT011 BKN026 OVC065 23/21 A2993 RMK AO2 T02280206 $

More Conditions Fewer Conditions

10-Day Weather Forecast

×

Almanac

Astronomia

Jul. 01, 2015 Alba Tramonto
Ora attuale
Crepuscolo civile
Crepuscolo nautico
Crepuscolo astronomico
Luna
Estensione della luce visibile
Lunghezza del giorno
Tomorrow will be .
, % of the Moon is Illuminated

Gli estremi di oggi

State Highs State Lows

Community

WunderPhotos

Upload Photos

1,834,354 foto caricate!

WunderBlogs® & News

Nearby

Qualità dell'aria

  Qualità dell'aria Indice AQ Inquinante
Not available.

Profondità neve

Stazione Profondità Altitudine

Attività sismica

Città  Distanza Mag. Data & Ora
Minimo Magnitudo Mostrato è 2.5.

Temperature delle acque costiere

Località Temperatura

Stations

Stazioni meteo nelle vicinanze

Ubicazione della stazione Temp. Raffreddamento del vento Punto di rugiada Umidità Vento Precip. Alt. Aggiornato Tipo